Time,TemperatureF,DewpointF,PressureIn,WindDirection,WindDirectionDegrees,WindSpeedMPH,WindSpeedGustMPH,Humidity,HourlyPrecipIn,Conditions,Clouds,dailyrainin,SolarRadiationWatts/m^2,SoftwareType,DateUTC
2013-04-14 00:02:00,31.0,16.0,-100.00,WNW,300,4.0,6.0,54,0.00,,,0.00,0.000000,,2013-04-14 06:02:00,
2013-04-14 00:12:00,31.0,16.0,-100.00,WNW,300,4.0,6.0,54,0.00,,,0.00,0.000000,,2013-04-14 06:12:00,
2013-04-14 00:22:00,31.0,16.0,-100.00,WNW,300,4.0,6.0,54,0.00,,,0.00,0.000000,,2013-04-14 06:22:00,
2013-04-14 00:30:00,32.0,17.0,-100.00,SW,223,3.0,5.0,54,0.00,,,0.00,0.000000,,2013-04-14 06:30:00,
2013-04-14 00:52:00,32.0,17.0,-100.00,SW,223,3.0,5.0,54,0.00,,,0.00,0.000000,,2013-04-14 06:52:00,
2013-04-14 01:02:00,32.0,17.0,-100.00,SW,223,3.0,5.0,54,0.00,,,0.00,0.000000,,2013-04-14 07:02:00,
2013-04-14 01:12:00,32.0,17.0,-100.00,SW,223,3.0,5.0,54,0.00,,,0.00,0.000000,,2013-04-14 07:12:00,
2013-04-14 01:22:00,32.0,17.0,-100.00,SW,223,3.0,5.0,54,0.00,,,0.00,0.000000,,2013-04-14 07:22:00,
2013-04-14 01:30:00,31.0,23.0,-100.00,WNW,297,4.0,15.0,72,0.00,,,0.00,0.000000,,2013-04-14 07:30:00,
2013-04-14 01:52:00,31.0,23.0,-100.00,WNW,297,4.0,15.0,72,0.00,,,0.00,0.000000,,2013-04-14 07:52:00,
2013-04-14 02:02:00,31.0,23.0,-100.00,WNW,297,4.0,15.0,72,0.00,,,0.00,0.000000,,2013-04-14 08:02:00,
2013-04-14 02:12:00,31.0,23.0,-100.00,WNW,297,4.0,15.0,72,0.00,,,0.00,0.000000,,2013-04-14 08:12:00,
2013-04-14 02:22:00,31.0,23.0,-100.00,WNW,297,4.0,15.0,72,0.00,,,0.00,0.000000,,2013-04-14 08:22:00,
2013-04-14 02:30:00,30.0,27.0,-100.00,East,83,3.0,6.0,90,0.00,,,0.00,0.000000,,2013-04-14 08:30:00,
2013-04-14 02:52:00,30.0,27.0,-100.00,East,83,3.0,6.0,90,0.00,,,0.00,0.000000,,2013-04-14 08:52:00,
2013-04-14 03:02:00,30.0,27.0,-100.00,East,83,3.0,6.0,90,0.00,,,0.00,0.000000,,2013-04-14 09:02:00,
2013-04-14 03:12:00,30.0,27.0,-100.00,East,83,3.0,6.0,90,0.00,,,0.00,0.000000,,2013-04-14 09:12:00,
2013-04-14 03:22:00,30.0,27.0,-100.00,East,83,3.0,6.0,90,0.00,,,0.00,0.000000,,2013-04-14 09:22:00,
2013-04-14 03:30:00,29.0,27.0,-100.00,ESE,108,5.0,8.0,94,0.00,,,0.00,0.000000,,2013-04-14 09:30:00,
2013-04-14 03:53:00,29.0,27.0,-100.00,ESE,108,5.0,8.0,94,0.00,,,0.00,0.000000,,2013-04-14 09:53:00,
2013-04-14 04:03:00,29.0,27.0,-100.00,ESE,108,5.0,8.0,94,0.00,,,0.00,0.000000,,2013-04-14 10:03:00,
2013-04-14 04:12:00,29.0,27.0,-100.00,ESE,108,5.0,8.0,94,0.00,,,0.00,0.000000,,2013-04-14 10:12:00,
2013-04-14 04:22:00,29.0,27.0,-100.00,ESE,108,5.0,8.0,94,0.00,,,0.00,0.000000,,2013-04-14 10:22:00,
2013-04-14 04:30:00,28.0,25.0,-100.00,SE,140,2.0,7.0,90,0.00,,,0.00,0.000000,,2013-04-14 10:30:00,
2013-04-14 04:52:00,28.0,25.0,-100.00,SE,140,2.0,7.0,90,0.00,,,0.00,0.000000,,2013-04-14 10:52:00,
2013-04-14 05:02:00,28.0,25.0,-100.00,SE,140,2.0,7.0,90,0.00,,,0.00,0.000000,,2013-04-14 11:02:00,
2013-04-14 05:12:00,28.0,25.0,-100.00,SE,140,2.0,7.0,90,0.00,,,0.00,0.000000,,2013-04-14 11:12:00,
2013-04-14 05:22:00,28.0,25.0,-100.00,SE,140,2.0,7.0,90,0.00,,,0.00,0.000000,,2013-04-14 11:22:00,
2013-04-14 05:30:00,27.0,25.0,-100.00,ENE,63,3.0,7.0,91,0.00,,,0.00,0.000000,,2013-04-14 11:30:00,
2013-04-14 05:53:00,27.0,25.0,-100.00,ENE,63,3.0,7.0,91,0.00,,,0.00,0.000000,,2013-04-14 11:53:00,
2013-04-14 06:02:00,27.0,25.0,-100.00,ENE,63,3.0,7.0,91,0.00,,,0.00,0.000000,,2013-04-14 12:02:00,
2013-04-14 06:12:00,27.0,25.0,-100.00,ENE,63,3.0,7.0,91,0.00,,,0.00,0.000000,,2013-04-14 12:12:00,
2013-04-14 06:21:00,27.0,25.0,-100.00,ENE,63,3.0,7.0,91,0.00,,,0.00,0.000000,,2013-04-14 12:21:00,
2013-04-14 06:30:00,26.0,23.0,-100.00,NNE,17,2.0,5.0,88,0.00,,,0.00,0.000000,,2013-04-14 12:30:00,
2013-04-14 06:52:00,26.0,23.0,-100.00,NNE,17,2.0,5.0,88,0.00,,,0.00,0.000000,,2013-04-14 12:52:00,
2013-04-14 07:02:00,26.0,23.0,-100.00,NNE,17,2.0,5.0,88,0.00,,,0.00,0.000000,,2013-04-14 13:02:00,
2013-04-14 07:12:00,26.0,23.0,-100.00,NNE,17,2.0,5.0,88,0.00,,,0.00,0.000000,,2013-04-14 13:12:00,
2013-04-14 07:22:00,26.0,23.0,-100.00,NNE,17,2.0,5.0,88,0.00,,,0.00,0.000000,,2013-04-14 13:22:00,
2013-04-14 07:30:00,26.0,23.0,-100.00,North,357,1.0,4.0,89,0.00,,,0.00,1.000000,,2013-04-14 13:30:00,
2013-04-14 07:52:00,26.0,23.0,-100.00,North,357,1.0,4.0,89,0.00,,,0.00,1.000000,,2013-04-14 13:52:00,
2013-04-14 08:02:00,26.0,23.0,-100.00,North,357,1.0,4.0,89,0.00,,,0.00,1.000000,,2013-04-14 14:02:00,
2013-04-14 08:12:00,26.0,23.0,-100.00,North,357,1.0,4.0,89,0.00,,,0.00,1.000000,,2013-04-14 14:12:00,
2013-04-14 08:22:00,26.0,23.0,-100.00,North,357,1.0,4.0,89,0.00,,,0.00,1.000000,,2013-04-14 14:22:00,
2013-04-14 08:30:00,29.0,24.0,-100.00,WSW,246,3.0,5.0,80,0.00,,,0.00,25.000000,,2013-04-14 14:30:00,
2013-04-14 08:53:00,29.0,24.0,-100.00,WSW,246,3.0,5.0,80,0.00,,,0.00,25.000000,,2013-04-14 14:53:00,
2013-04-14 09:02:00,29.0,24.0,-100.00,WSW,246,3.0,5.0,80,0.00,,,0.00,25.000000,,2013-04-14 15:02:00,
2013-04-14 09:12:00,29.0,24.0,-100.00,WSW,246,3.0,5.0,80,0.00,,,0.00,25.000000,,2013-04-14 15:12:00,
2013-04-14 09:22:00,29.0,24.0,-100.00,WSW,246,3.0,5.0,80,0.00,,,0.00,25.000000,,2013-04-14 15:22:00,
2013-04-14 09:30:00,31.0,18.0,-100.00,NW,309,3.0,9.0,59,0.00,,,0.00,45.000000,,2013-04-14 15:30:00,
2013-04-14 09:53:00,31.0,18.0,-100.00,NW,309,3.0,9.0,59,0.00,,,0.00,45.000000,,2013-04-14 15:53:00,
2013-04-14 10:04:00,31.0,18.0,-100.00,NW,309,3.0,9.0,59,0.00,,,0.00,45.000000,,2013-04-14 16:04:00,
2013-04-14 10:13:00,31.0,18.0,-100.00,NW,309,3.0,9.0,59,0.00,,,0.00,45.000000,,2013-04-14 16:13:00,
2013-04-14 10:22:00,31.0,18.0,-100.00,NW,309,3.0,9.0,59,0.00,,,0.00,45.000000,,2013-04-14 16:22:00,
2013-04-14 10:30:00,34.0,17.0,-100.00,NE,37,5.0,11.0,49,0.00,,,0.00,91.000000,,2013-04-14 16:30:00,
2013-04-14 10:53:00,34.0,17.0,-100.00,NE,37,5.0,11.0,49,0.00,,,0.00,91.000000,,2013-04-14 16:53:00,
2013-04-14 11:02:00,34.0,17.0,-100.00,NE,37,5.0,11.0,49,0.00,,,0.00,91.000000,,2013-04-14 17:02:00,
2013-04-14 11:12:00,34.0,17.0,-100.00,NE,37,5.0,11.0,49,0.00,,,0.00,91.000000,,2013-04-14 17:12:00,
2013-04-14 11:22:00,34.0,17.0,-100.00,NE,37,5.0,11.0,49,0.00,,,0.00,91.000000,,2013-04-14 17:22:00,
2013-04-14 11:30:00,35.0,19.0,-100.00,NE,50,5.0,17.0,52,0.00,,,0.00,126.000000,,2013-04-14 17:30:00,
2013-04-14 11:53:00,35.0,19.0,-100.00,NE,50,5.0,17.0,52,0.00,,,0.00,126.000000,,2013-04-14 17:53:00,
2013-04-14 12:02:00,35.0,19.0,-100.00,NE,50,5.0,17.0,52,0.00,,,0.00,126.000000,,2013-04-14 18:02:00,
2013-04-14 12:12:00,35.0,19.0,-100.00,NE,50,5.0,17.0,52,0.00,,,0.00,126.000000,,2013-04-14 18:12:00,
2013-04-14 12:22:00,35.0,19.0,-100.00,NE,50,5.0,17.0,52,0.00,,,0.00,126.000000,,2013-04-14 18:22:00,
2013-04-14 12:30:00,34.0,19.0,-100.00,ENE,70,5.0,16.0,53,0.00,,,0.00,150.000000,,2013-04-14 18:30:00,
2013-04-14 12:53:00,34.0,19.0,-100.00,ENE,70,5.0,16.0,53,0.00,,,0.00,150.000000,,2013-04-14 18:53:00,
2013-04-14 13:03:00,34.0,19.0,-100.00,ENE,70,5.0,16.0,53,0.00,,,0.00,150.000000,,2013-04-14 19:03:00,
2013-04-14 13:12:00,34.0,19.0,-100.00,ENE,70,5.0,16.0,53,0.00,,,0.00,150.000000,,2013-04-14 19:12:00,
2013-04-14 13:22:00,34.0,19.0,-100.00,ENE,70,5.0,16.0,53,0.00,,,0.00,150.000000,,2013-04-14 19:22:00,
2013-04-14 13:30:00,34.0,23.0,-100.00,ENE,59,9.0,19.0,63,0.00,,,0.00,198.000000,,2013-04-14 19:30:00,
2013-04-14 13:52:00,34.0,23.0,-100.00,ENE,59,9.0,19.0,63,0.00,,,0.00,198.000000,,2013-04-14 19:52:00,
2013-04-14 14:02:00,34.0,23.0,-100.00,ENE,59,9.0,19.0,63,0.00,,,0.00,198.000000,,2013-04-14 20:02:00,
2013-04-14 14:12:00,34.0,23.0,-100.00,ENE,59,9.0,19.0,63,0.00,,,0.00,198.000000,,2013-04-14 20:12:00,
2013-04-14 14:22:00,34.0,23.0,-100.00,ENE,59,9.0,19.0,63,0.00,,,0.00,198.000000,,2013-04-14 20:22:00,
2013-04-14 14:30:00,33.0,21.0,-100.00,ENE,77,9.0,22.0,61,0.00,,,0.00,254.000000,,2013-04-14 20:30:00,
2013-04-14 14:52:00,33.0,21.0,-100.00,ENE,77,9.0,22.0,61,0.00,,,0.00,254.000000,,2013-04-14 20:52:00,
2013-04-14 15:02:00,33.0,21.0,-100.00,ENE,77,9.0,22.0,61,0.00,,,0.00,254.000000,,2013-04-14 21:02:00,
2013-04-14 15:12:00,33.0,21.0,-100.00,ENE,77,9.0,22.0,61,0.00,,,0.00,254.000000,,2013-04-14 21:12:00,
2013-04-14 15:22:00,33.0,21.0,-100.00,ENE,77,9.0,22.0,61,0.00,,,0.00,254.000000,,2013-04-14 21:22:00,
2013-04-14 15:30:00,33.0,20.0,-100.00,ENE,60,8.0,16.0,59,0.00,,,0.00,199.000000,,2013-04-14 21:30:00,
2013-04-14 15:53:00,33.0,20.0,-100.00,ENE,60,8.0,16.0,59,0.00,,,0.00,199.000000,,2013-04-14 21:53:00,
2013-04-14 16:02:00,33.0,20.0,-100.00,ENE,60,8.0,16.0,59,0.00,,,0.00,199.000000,,2013-04-14 22:02:00,
2013-04-14 16:12:00,33.0,20.0,-100.00,ENE,60,8.0,16.0,59,0.00,,,0.00,199.000000,,2013-04-14 22:12:00,
2013-04-14 16:22:00,33.0,20.0,-100.00,ENE,60,8.0,16.0,59,0.00,,,0.00,199.000000,,2013-04-14 22:22:00,
2013-04-14 16:30:00,32.0,20.0,-100.00,NE,44,5.0,13.0,60,0.00,,,0.00,157.000000,,2013-04-14 22:30:00,
2013-04-14 16:52:00,32.0,20.0,-100.00,NE,44,5.0,13.0,60,0.00,,,0.00,157.000000,,2013-04-14 22:52:00,
2013-04-14 17:02:00,32.0,20.0,-100.00,NE,44,5.0,13.0,60,0.00,,,0.00,157.000000,,2013-04-14 23:02:00,
2013-04-14 17:12:00,32.0,20.0,-100.00,NE,44,5.0,13.0,60,0.00,,,0.00,157.000000,,2013-04-14 23:12:00,
2013-04-14 17:22:00,32.0,20.0,-100.00,NE,44,5.0,13.0,60,0.00,,,0.00,157.000000,,2013-04-14 23:22:00,
2013-04-14 17:30:00,30.0,17.0,-100.00,ENE,71,8.0,14.0,57,0.00,,,0.00,127.000000,,2013-04-14 23:30:00,
2013-04-14 17:53:00,30.0,17.0,-100.00,ENE,71,8.0,14.0,57,0.00,,,0.00,127.000000,,2013-04-14 23:53:00,
2013-04-14 18:02:00,30.0,17.0,-100.00,ENE,71,8.0,14.0,57,0.00,,,0.00,127.000000,,2013-04-15 00:02:00,
2013-04-14 18:12:00,30.0,17.0,-100.00,ENE,71,8.0,14.0,57,0.00,,,0.00,127.000000,,2013-04-15 00:12:00,
2013-04-14 18:22:00,30.0,17.0,-100.00,ENE,71,8.0,14.0,57,0.00,,,0.00,127.000000,,2013-04-15 00:22:00,
2013-04-14 18:30:00,30.0,17.0,-100.00,ENE,60,4.0,15.0,57,0.00,,,0.00,93.000000,,2013-04-15 00:30:00,
2013-04-14 18:52:00,30.0,17.0,-100.00,ENE,60,4.0,15.0,57,0.00,,,0.00,93.000000,,2013-04-15 00:52:00,
2013-04-14 19:02:00,30.0,17.0,-100.00,ENE,60,4.0,15.0,57,0.00,,,0.00,93.000000,,2013-04-15 01:02:00,
2013-04-14 19:12:00,30.0,17.0,-100.00,ENE,60,4.0,15.0,57,0.00,,,0.00,93.000000,,2013-04-15 01:12:00,
2013-04-14 19:22:00,30.0,17.0,-100.00,ENE,60,4.0,15.0,57,0.00,,,0.00,93.000000,,2013-04-15 01:22:00,
2013-04-14 19:30:00,28.0,16.0,-100.00,ENE,61,8.0,14.0,60,0.00,,,0.00,60.000000,,2013-04-15 01:30:00,
2013-04-14 19:52:00,28.0,16.0,-100.00,ENE,61,8.0,14.0,60,0.00,,,0.00,60.000000,,2013-04-15 01:52:00,
2013-04-14 20:02:00,28.0,16.0,-100.00,ENE,61,8.0,14.0,60,0.00,,,0.00,60.000000,,2013-04-15 02:02:00,
2013-04-14 20:12:00,28.0,16.0,-100.00,ENE,61,8.0,14.0,60,0.00,,,0.00,60.000000,,2013-04-15 02:12:00,
2013-04-14 20:22:00,28.0,16.0,-100.00,ENE,61,8.0,14.0,60,0.00,,,0.00,60.000000,,2013-04-15 02:22:00,
2013-04-14 20:30:00,26.0,17.0,-100.00,NE,55,3.0,11.0,67,0.00,,,0.00,8.000000,,2013-04-15 02:30:00,
2013-04-14 20:52:00,26.0,17.0,-100.00,NE,55,3.0,11.0,67,0.00,,,0.00,8.000000,,2013-04-15 02:52:00,
2013-04-14 21:02:00,26.0,17.0,-100.00,NE,55,3.0,11.0,67,0.00,,,0.00,8.000000,,2013-04-15 03:02:00,
2013-04-14 21:12:00,26.0,17.0,-100.00,NE,55,3.0,11.0,67,0.00,,,0.00,8.000000,,2013-04-15 03:12:00,
2013-04-14 21:22:00,26.0,17.0,-100.00,NE,55,3.0,11.0,67,0.00,,,0.00,8.000000,,2013-04-15 03:22:00,
2013-04-14 21:30:00,25.0,17.0,-100.00,West,270,4.0,10.0,70,0.00,,,0.00,0.000000,,2013-04-15 03:30:00,
2013-04-14 21:54:00,25.0,17.0,-100.00,West,270,4.0,10.0,70,0.00,,,0.00,0.000000,,2013-04-15 03:54:00,
2013-04-14 22:03:00,25.0,17.0,-100.00,West,270,4.0,10.0,70,0.00,,,0.00,0.000000,,2013-04-15 04:03:00,
2013-04-14 22:13:00,25.0,17.0,-100.00,West,270,4.0,10.0,70,0.00,,,0.00,0.000000,,2013-04-15 04:13:00,
2013-04-14 22:22:00,25.0,17.0,-100.00,West,270,4.0,10.0,70,0.00,,,0.00,0.000000,,2013-04-15 04:22:00,
2013-04-14 22:30:00,24.0,19.0,-100.00,West,275,2.0,6.0,80,0.00,,,0.00,0.000000,,2013-04-15 04:30:00,
2013-04-14 22:52:00,24.0,19.0,-100.00,West,275,2.0,6.0,80,0.00,,,0.00,0.000000,,2013-04-15 04:52:00,
2013-04-14 23:02:00,24.0,19.0,-100.00,West,275,2.0,6.0,80,0.00,,,0.00,0.000000,,2013-04-15 05:02:00,
2013-04-14 23:12:00,24.0,19.0,-100.00,West,275,2.0,6.0,80,0.00,,,0.00,0.000000,,2013-04-15 05:12:00,
2013-04-14 23:22:00,24.0,19.0,-100.00,West,275,2.0,6.0,80,0.00,,,0.00,0.000000,,2013-04-15 05:22:00,
2013-04-14 23:30:00,24.0,18.0,-100.00,NW,315,7.0,10.0,78,0.00,,,0.00,0.000000,,2013-04-15 05:30:00,
2013-04-14 23:52:00,24.0,18.0,-100.00,NW,315,7.0,10.0,78,0.00,,,0.00,0.000000,,2013-04-15 05:52:00,